createdAt,value
2022-09-17T00:01:21.370Z,14.38
2022-09-17T00:03:52.423Z,14.35
2022-09-17T00:06:19.451Z,14.31
2022-09-17T00:08:45.932Z,14.22
2022-09-17T00:11:13.901Z,14.28
2022-09-17T00:13:40.749Z,14.42
2022-09-17T00:16:07.766Z,14.42
2022-09-17T00:18:36.850Z,14.34
2022-09-17T00:21:03.489Z,14.44
2022-09-17T00:23:29.897Z,14.43
2022-09-17T00:25:56.383Z,14.32
2022-09-17T00:28:22.812Z,14.22
2022-09-17T00:30:49.235Z,14.21
2022-09-17T00:33:17.101Z,14.43
2022-09-17T00:35:44.462Z,14.47
2022-09-17T00:38:11.363Z,14.35
2022-09-17T00:40:37.889Z,14.39
2022-09-17T00:43:04.745Z,14.40
2022-09-17T00:45:32.149Z,14.32
2022-09-17T00:48:00.308Z,14.27
2022-09-17T00:50:38.362Z,14.20
2022-09-17T00:53:13.574Z,14.39
2022-09-17T00:55:42.526Z,14.33
2022-09-17T00:58:10.811Z,14.43
2022-09-17T01:00:37.759Z,14.35
2022-09-17T01:03:04.821Z,14.41
2022-09-17T01:05:31.217Z,14.52
2022-09-17T01:08:01.593Z,14.52
2022-09-17T01:10:28.017Z,14.69
2022-09-17T01:13:00.583Z,14.56
2022-09-17T01:15:35.338Z,14.52
2022-09-17T01:18:14.594Z,14.62
2022-09-17T01:21:03.142Z,14.54
2022-09-17T01:23:29.530Z,14.55
2022-09-17T01:26:08.114Z,14.65
2022-09-17T01:28:34.594Z,14.52
2022-09-17T01:31:01.237Z,14.52
2022-09-17T01:33:34.848Z,14.62
2022-09-17T01:36:20.344Z,14.66
2022-09-17T01:39:06.568Z,14.62
2022-09-17T01:41:48.236Z,14.65
2022-09-17T01:44:28.236Z,14.82
2022-09-17T01:46:58.160Z,14.68
2022-09-17T01:49:25.867Z,14.76
2022-09-17T01:51:54.761Z,14.81
2022-09-17T01:54:25.229Z,14.76
2022-09-17T01:56:58.310Z,14.68
2022-09-17T01:59:24.711Z,14.70
2022-09-17T02:01:58.041Z,14.71
2022-09-17T02:04:34.650Z,14.71
2022-09-17T02:07:03.974Z,14.55
2022-09-17T02:09:34.914Z,14.32
2022-09-17T02:12:04.000Z,14.39
2022-09-17T02:14:39.626Z,14.33
2022-09-17T02:17:10.750Z,14.29
2022-09-17T02:19:38.579Z,14.38
2022-09-17T02:22:10.899Z,14.55
2022-09-17T02:24:56.708Z,14.55
2022-09-17T02:27:30.423Z,14.61
2022-09-17T02:29:56.902Z,14.60
2022-09-17T02:32:24.833Z,14.49
2022-09-17T02:34:51.365Z,14.50
2022-09-17T02:37:17.895Z,14.64
2022-09-17T02:39:44.478Z,14.77
2022-09-17T02:42:10.868Z,14.53
2022-09-17T02:44:54.105Z,14.88
2022-09-17T02:47:34.594Z,14.88
2022-09-17T02:50:10.041Z,14.77
2022-09-17T02:52:46.112Z,14.77
2022-09-17T02:55:17.525Z,14.82
2022-09-17T02:58:04.214Z,14.72
2022-09-17T03:00:31.189Z,14.70
2022-09-17T03:02:59.420Z,14.84
2022-09-17T03:05:27.740Z,14.92
2022-09-17T03:07:59.123Z,14.83
2022-09-17T03:10:26.053Z,14.81
2022-09-17T03:12:53.731Z,14.67
2022-09-17T03:15:20.207Z,14.42
2022-09-17T03:17:50.089Z,14.50
2022-09-17T03:20:19.831Z,14.62
2022-09-17T03:22:47.187Z,14.74
2022-09-17T03:25:13.853Z,14.71
2022-09-17T03:27:40.401Z,14.70
2022-09-17T03:30:07.663Z,14.76
2022-09-17T03:32:34.108Z,14.84
2022-09-17T03:35:00.570Z,14.93
2022-09-17T03:37:30.983Z,14.91
2022-09-17T03:39:59.280Z,15.43
2022-09-17T03:42:25.785Z,15.37
2022-09-17T03:44:52.206Z,14.99
2022-09-17T03:47:18.697Z,14.98
2022-09-17T03:49:45.113Z,14.90
2022-09-17T03:52:11.551Z,14.63
2022-09-17T03:54:38.198Z,14.44
2022-09-17T03:57:04.730Z,14.47
2022-09-17T03:59:31.569Z,14.64
2022-09-17T04:01:58.158Z,14.72
2022-09-17T04:04:25.161Z,14.71
2022-09-17T04:06:51.581Z,14.67
2022-09-17T04:09:18.025Z,14.63
2022-09-17T04:11:46.286Z,14.71
2022-09-17T04:14:12.872Z,14.85
2022-09-17T04:16:39.301Z,14.88
2022-09-17T04:19:05.753Z,14.98
2022-09-17T04:21:32.198Z,14.82
2022-09-17T04:23:59.136Z,14.86
2022-09-17T04:26:25.568Z,14.75
2022-09-17T04:28:52.050Z,14.73
2022-09-17T04:31:18.505Z,14.70
2022-09-17T04:33:45.009Z,14.70
2022-09-17T04:36:11.490Z,14.77
2022-09-17T04:38:37.902Z,14.73
2022-09-17T04:41:06.837Z,14.63
2022-09-17T04:43:33.287Z,14.65
2022-09-17T04:45:59.742Z,14.46
2022-09-17T04:48:26.246Z,14.25
2022-09-17T04:50:52.647Z,14.28
2022-09-17T04:53:19.154Z,14.40
2022-09-17T04:55:45.606Z,14.49
2022-09-17T04:58:12.187Z,14.56
2022-09-17T05:00:39.050Z,14.64
2022-09-17T05:03:05.553Z,14.73
2022-09-17T05:05:32.001Z,14.77
2022-09-17T05:07:58.415Z,14.74
2022-09-17T05:10:25.465Z,14.61
2022-09-17T05:12:55.843Z,14.48
2022-09-17T05:15:23.105Z,14.44
2022-09-17T05:17:49.643Z,14.50
2022-09-17T05:20:16.670Z,14.61
2022-09-17T05:22:44.461Z,14.67
2022-09-17T05:25:11.540Z,14.67
2022-09-17T05:27:38.678Z,14.47
2022-09-17T05:30:05.536Z,14.17
2022-09-17T05:32:32.019Z,14.17
2022-09-17T05:35:00.653Z,14.17
2022-09-17T05:37:29.326Z,14.15
2022-09-17T05:39:55.803Z,14.19
2022-09-17T05:42:22.327Z,14.08
2022-09-17T05:44:48.907Z,14.12
2022-09-17T05:47:15.418Z,14.01
2022-09-17T05:49:41.975Z,13.98
2022-09-17T05:52:08.441Z,13.95
2022-09-17T05:54:34.906Z,14.12
2022-09-17T05:57:01.791Z,14.26
2022-09-17T05:59:28.226Z,14.23
2022-09-17T06:01:54.786Z,14.21
2022-09-17T06:04:21.223Z,14.10
2022-09-17T06:06:47.691Z,14.15
2022-09-17T06:09:14.176Z,14.15
2022-09-17T06:11:40.606Z,14.13
2022-09-17T06:14:07.075Z,14.17
2022-09-17T06:16:33.573Z,14.17
2022-09-17T06:19:00.084Z,14.04
2022-09-17T06:21:26.611Z,14.10
2022-09-17T06:23:53.231Z,14.02
2022-09-17T06:26:19.657Z,13.90
2022-09-17T06:28:46.278Z,13.75
2022-09-17T06:31:13.386Z,13.98
2022-09-17T06:33:40.196Z,14.17
2022-09-17T06:36:13.062Z,14.12
2022-09-17T06:38:40.089Z,14.17
2022-09-17T06:41:06.564Z,14.36
2022-09-17T06:43:33.059Z,13.99
2022-09-17T06:46:00.585Z,14.01
2022-09-17T06:48:27.987Z,14.15
2022-09-17T06:50:54.996Z,14.08
2022-09-17T06:53:21.779Z,13.83
2022-09-17T06:55:48.269Z,13.91
2022-09-17T06:58:14.888Z,13.91
2022-09-17T07:00:41.596Z,13.94
2022-09-17T07:03:09.046Z,14.09
2022-09-17T07:05:35.530Z,13.93
2022-09-17T07:08:03.229Z,14.04
2022-09-17T07:10:30.042Z,14.29
2022-09-17T07:12:56.750Z,14.23
2022-09-17T07:15:23.249Z,14.22
2022-09-17T07:17:49.674Z,14.28
2022-09-17T07:20:16.294Z,14.31
2022-09-17T07:22:42.748Z,14.22
2022-09-17T07:25:10.022Z,14.17
2022-09-17T07:27:36.430Z,14.31
2022-09-17T07:30:03.293Z,14.34
2022-09-17T07:32:31.159Z,14.23
2022-09-17T07:34:57.639Z,14.43
2022-09-17T07:37:24.105Z,14.39
2022-09-17T07:39:50.555Z,14.38
2022-09-17T07:42:17.008Z,14.29
2022-09-17T07:44:44.110Z,14.10
2022-09-17T07:47:10.582Z,13.94
2022-09-17T07:49:37.040Z,13.89
2022-09-17T07:52:06.363Z,13.88
2022-09-17T07:54:39.073Z,13.84
2022-09-17T07:57:05.518Z,13.75
2022-09-17T07:59:32.170Z,13.89
2022-09-17T08:01:58.738Z,13.89
2022-09-17T08:04:25.500Z,13.99
2022-09-17T08:06:51.944Z,14.13
2022-09-17T08:09:18.704Z,14.13
2022-09-17T08:11:55.475Z,13.98
2022-09-17T08:14:26.959Z,14.13
2022-09-17T08:16:55.089Z,14.10
2022-09-17T08:19:22.401Z,13.96
2022-09-17T08:21:48.862Z,13.99
2022-09-17T08:24:15.513Z,13.82
2022-09-17T08:26:41.976Z,13.81
2022-09-17T08:29:08.538Z,13.83
2022-09-17T08:31:35.227Z,13.89
2022-09-17T08:34:01.795Z,13.82
2022-09-17T08:36:28.598Z,13.94
2022-09-17T08:38:55.925Z,13.91
2022-09-17T08:41:22.664Z,13.83
2022-09-17T08:43:55.225Z,13.89
2022-09-17T08:46:22.496Z,13.98
2022-09-17T08:48:56.733Z,14.06
2022-09-17T08:51:25.973Z,14.32
2022-09-17T08:54:11.194Z,14.19
2022-09-17T08:56:38.571Z,14.05
2022-09-17T08:59:31.307Z,14.20
2022-09-17T09:02:17.068Z,14.30
2022-09-17T09:04:43.651Z,14.29
2022-09-17T09:07:17.383Z,14.17
2022-09-17T09:09:51.613Z,14.34
2022-09-17T09:12:26.534Z,14.42
2022-09-17T09:15:03.296Z,14.46
2022-09-17T09:17:34.288Z,14.25
2022-09-17T09:20:00.817Z,14.24
2022-09-17T09:22:43.665Z,14.28
2022-09-17T09:25:23.841Z,14.67
2022-09-17T09:27:50.282Z,14.64
2022-09-17T09:30:18.267Z,14.75
2022-09-17T09:32:47.442Z,14.62
2022-09-17T09:35:28.127Z,14.89
2022-09-17T09:37:57.663Z,14.72
2022-09-17T09:40:33.795Z,14.97
2022-09-17T09:43:01.844Z,15.10
2022-09-17T09:45:45.448Z,15.04
2022-09-17T09:48:30.593Z,14.71
2022-09-17T09:51:07.482Z,14.66
2022-09-17T09:53:52.848Z,14.86
2022-09-17T09:56:38.503Z,14.89
2022-09-17T09:59:08.665Z,14.99
2022-09-17T10:01:39.685Z,15.10
2022-09-17T10:04:15.766Z,14.94
2022-09-17T10:06:42.338Z,15.33
2022-09-17T10:09:10.094Z,15.36
2022-09-17T10:11:36.777Z,15.33
2022-09-17T10:14:23.519Z,15.16
2022-09-17T10:16:50.182Z,15.30
2022-09-17T10:19:25.074Z,15.60
2022-09-17T10:21:52.422Z,15.49
2022-09-17T10:24:26.873Z,15.92
2022-09-17T10:27:01.285Z,15.90
2022-09-17T10:29:28.046Z,15.35
2022-09-17T10:31:55.748Z,15.28
2022-09-17T10:34:27.157Z,15.12
2022-09-17T10:36:55.408Z,15.85
2022-09-17T10:39:27.670Z,15.40
2022-09-17T10:42:13.726Z,15.29
2022-09-17T10:44:50.481Z,15.22
2022-09-17T10:47:21.824Z,15.23
2022-09-17T10:49:50.170Z,15.47
2022-09-17T10:52:27.293Z,15.63
2022-09-17T10:55:12.510Z,15.68
2022-09-17T10:57:38.951Z,15.80
2022-09-17T11:00:18.947Z,15.81
2022-09-17T11:02:51.149Z,15.77
2022-09-17T11:05:17.626Z,16.04
2022-09-17T11:07:57.121Z,15.99
2022-09-17T11:10:33.191Z,16.11
2022-09-17T11:12:59.616Z,15.38
2022-09-17T11:15:40.075Z,15.18
2022-09-17T11:18:32.793Z,15.78
2022-09-17T11:21:11.426Z,15.86
2022-09-17T11:23:53.461Z,15.88
2022-09-17T11:26:19.869Z,16.25
2022-09-17T11:29:00.922Z,15.99
2022-09-17T11:31:30.563Z,16.31
2022-09-17T11:34:12.198Z,16.22
2022-09-17T11:36:46.091Z,16.22
2022-09-17T11:39:18.898Z,16.16
2022-09-17T11:41:46.706Z,16.28
2022-09-17T11:44:17.066Z,16.46
2022-09-17T11:46:43.520Z,16.48
2022-09-17T11:49:25.417Z,16.78
2022-09-17T11:51:58.042Z,16.18
2022-09-17T11:54:31.105Z,16.40
2022-09-17T11:57:12.209Z,16.27
2022-09-17T11:59:43.737Z,16.35
2022-09-17T12:02:39.239Z,16.37
2022-09-17T12:05:10.674Z,16.40
2022-09-17T12:07:56.015Z,16.25
2022-09-17T12:10:25.514Z,16.23
2022-09-17T12:13:12.206Z,16.49
2022-09-17T12:15:40.302Z,16.30
2022-09-17T12:18:32.370Z,15.91
2022-09-17T12:21:01.955Z,15.71
2022-09-17T12:23:40.322Z,15.94
2022-09-17T12:26:13.518Z,15.80
2022-09-17T12:29:00.392Z,16.09
2022-09-17T12:31:26.992Z,15.87
2022-09-17T12:33:59.691Z,15.68
2022-09-17T12:36:52.770Z,15.57
2022-09-17T12:39:26.115Z,15.62
2022-09-17T12:42:01.932Z,15.57
2022-09-17T12:44:38.790Z,15.59
2022-09-17T12:47:33.452Z,15.58
2022-09-17T12:50:12.047Z,15.14
2022-09-17T12:52:47.794Z,15.44
2022-09-17T12:55:14.186Z,15.36
2022-09-17T12:57:49.527Z,15.16
2022-09-17T13:00:16.598Z,15.35
2022-09-17T13:02:49.553Z,15.59
2022-09-17T13:05:36.341Z,15.60
2022-09-17T13:08:21.031Z,15.03
2022-09-17T13:10:57.697Z,14.94
2022-09-17T13:13:43.014Z,15.31
2022-09-17T13:16:20.092Z,15.03
2022-09-17T13:19:17.059Z,15.00
2022-09-17T13:21:51.575Z,14.98
2022-09-17T13:24:24.965Z,14.93
2022-09-17T13:26:53.913Z,14.74
2022-09-17T13:29:39.233Z,14.67
2022-09-17T13:32:05.650Z,14.61
2022-09-17T13:34:32.214Z,14.38
2022-09-17T13:36:59.899Z,14.26
2022-09-17T13:39:44.874Z,14.56
2022-09-17T13:42:14.916Z,14.27
2022-09-17T13:44:43.733Z,14.09
2022-09-17T13:47:15.298Z,14.03
2022-09-17T13:49:47.207Z,14.24
2022-09-17T13:52:13.686Z,14.38
2022-09-17T13:54:40.342Z,14.53
2022-09-17T13:57:11.082Z,14.39
2022-09-17T13:59:37.917Z,14.66
2022-09-17T14:02:13.375Z,14.73
2022-09-17T14:04:40.340Z,14.59
2022-09-17T14:07:22.193Z,14.67
2022-09-17T14:09:56.066Z,14.41
2022-09-17T14:12:41.199Z,14.17
2022-09-17T14:15:26.429Z,14.35
2022-09-17T14:17:52.919Z,14.00
2022-09-17T14:20:21.375Z,14.06
2022-09-17T14:23:03.470Z,14.41
2022-09-17T14:25:46.353Z,14.30
2022-09-17T14:28:39.090Z,14.47
2022-09-17T14:31:11.916Z,14.65
2022-09-17T14:33:39.549Z,14.69
2022-09-17T14:36:10.491Z,14.58
2022-09-17T14:38:37.290Z,14.56
2022-09-17T14:41:06.363Z,14.62
2022-09-17T14:43:35.668Z,14.70
2022-09-17T14:46:04.125Z,14.83
2022-09-17T14:48:32.172Z,14.91
2022-09-17T14:51:16.945Z,14.83
2022-09-17T14:53:44.067Z,14.78
2022-09-17T14:56:19.410Z,14.70
2022-09-17T14:58:47.982Z,14.75
2022-09-17T15:01:32.608Z,14.84
2022-09-17T15:04:14.232Z,14.67
2022-09-17T15:06:41.473Z,14.74
2022-09-17T15:09:34.006Z,14.85
2022-09-17T15:12:01.289Z,14.80
2022-09-17T15:14:29.137Z,14.65
2022-09-17T15:16:57.956Z,14.59
2022-09-17T15:19:33.490Z,14.58
2022-09-17T15:22:04.777Z,14.48
2022-09-17T15:24:38.854Z,14.56
2022-09-17T15:27:18.439Z,14.66
2022-09-17T15:29:46.854Z,14.53
2022-09-17T15:32:14.117Z,14.57
2022-09-17T15:34:41.114Z,14.49
2022-09-17T15:37:18.177Z,14.27
2022-09-17T15:39:50.785Z,14.52
2022-09-17T15:42:20.426Z,14.52
2022-09-17T15:44:47.087Z,14.54
2022-09-17T15:47:39.746Z,14.42
2022-09-17T15:50:17.129Z,14.44
2022-09-17T15:52:43.923Z,14.55
2022-09-17T15:55:32.120Z,14.50
2022-09-17T15:57:59.630Z,14.57
2022-09-17T16:00:26.168Z,14.62
2022-09-17T16:02:52.962Z,14.24
2022-09-17T16:05:25.498Z,14.32
2022-09-17T16:07:52.250Z,13.88
2022-09-17T16:10:19.290Z,14.18
2022-09-17T16:12:49.009Z,14.54
2022-09-17T16:15:17.425Z,14.68
2022-09-17T16:17:44.654Z,14.67
2022-09-17T16:20:16.910Z,14.65
2022-09-17T16:22:43.835Z,14.72
2022-09-17T16:25:11.291Z,14.68
2022-09-17T16:27:46.237Z,14.13
2022-09-17T16:30:15.078Z,14.42
2022-09-17T16:32:41.590Z,14.61
2022-09-17T16:35:09.140Z,14.72
2022-09-17T16:37:35.635Z,14.36
2022-09-17T16:40:02.330Z,14.09
2022-09-17T16:42:32.347Z,14.00
2022-09-17T16:45:00.166Z,14.29
2022-09-17T16:47:26.565Z,14.14
2022-09-17T16:49:52.969Z,13.88
2022-09-17T16:52:19.590Z,14.05
2022-09-17T16:54:45.990Z,13.77
2022-09-17T16:57:12.421Z,13.86
2022-09-17T16:59:38.906Z,13.77
2022-09-17T17:02:05.600Z,14.01
2022-09-17T17:04:32.049Z,13.78
2022-09-17T17:06:58.510Z,13.86
2022-09-17T17:09:25.045Z,13.90
2022-09-17T17:11:51.810Z,13.77
2022-09-17T17:14:19.046Z,14.20
2022-09-17T17:16:45.558Z,13.85
2022-09-17T17:19:12.097Z,13.75
2022-09-17T17:21:38.806Z,13.74
2022-09-17T17:24:06.713Z,13.65
2022-09-17T17:26:33.822Z,13.17
2022-09-17T17:29:00.350Z,13.74
2022-09-17T17:31:26.920Z,13.56
2022-09-17T17:33:53.443Z,13.87
2022-09-17T17:36:19.847Z,13.80
2022-09-17T17:38:46.377Z,13.50
2022-09-17T17:41:14.102Z,13.70
2022-09-17T17:43:41.049Z,13.49
2022-09-17T17:46:08.624Z,13.53
2022-09-17T17:48:35.367Z,13.59
2022-09-17T17:51:04.815Z,13.58
2022-09-17T17:53:31.975Z,13.55
2022-09-17T17:56:06.478Z,13.49
2022-09-17T17:58:33.282Z,13.29
2022-09-17T18:00:59.890Z,13.28
2022-09-17T18:03:26.366Z,13.28
2022-09-17T18:05:53.689Z,13.30
2022-09-17T18:08:20.251Z,13.19
2022-09-17T18:10:56.917Z,13.21
2022-09-17T18:13:23.877Z,13.02
2022-09-17T18:15:51.873Z,13.03
2022-09-17T18:18:18.287Z,12.95
2022-09-17T18:20:44.721Z,12.68
2022-09-17T18:23:11.150Z,12.42
2022-09-17T18:25:37.574Z,12.30
2022-09-17T18:28:04.047Z,12.49
2022-09-17T18:30:32.186Z,12.61
2022-09-17T18:32:58.612Z,12.49
2022-09-17T18:35:25.054Z,12.62
2022-09-17T18:37:51.461Z,12.69
2022-09-17T18:40:17.994Z,12.84
2022-09-17T18:42:44.433Z,13.33
2022-09-17T18:45:11.046Z,13.13
2022-09-17T18:47:37.498Z,13.09
2022-09-17T18:50:04.057Z,13.03
2022-09-17T18:52:30.553Z,13.09
2022-09-17T18:54:56.982Z,13.12
2022-09-17T18:57:23.497Z,13.16
2022-09-17T18:59:50.073Z,13.11
2022-09-17T19:02:16.512Z,13.08
2022-09-17T19:04:43.171Z,13.16
2022-09-17T19:07:09.694Z,13.13
2022-09-17T19:09:36.166Z,13.03
2022-09-17T19:12:02.703Z,12.65
2022-09-17T19:14:29.127Z,12.45
2022-09-17T19:16:55.548Z,12.27
2022-09-17T19:19:21.976Z,12.09
2022-09-17T19:21:51.519Z,12.04
2022-09-17T19:24:17.989Z,11.98
2022-09-17T19:26:48.808Z,11.73
2022-09-17T19:29:17.206Z,11.65
2022-09-17T19:31:43.691Z,11.84
2022-09-17T19:34:10.208Z,11.87
2022-09-17T19:36:36.737Z,12.00
2022-09-17T19:39:03.227Z,11.78
2022-09-17T19:41:31.958Z,11.70
2022-09-17T19:43:58.536Z,11.88
2022-09-17T19:46:25.998Z,12.01
2022-09-17T19:48:53.745Z,11.98
2022-09-17T19:51:20.927Z,11.86
2022-09-17T19:53:47.482Z,11.97
2022-09-17T19:56:15.149Z,12.10
2022-09-17T19:58:41.922Z,11.93
2022-09-17T20:01:08.442Z,11.80
2022-09-17T20:03:34.859Z,11.71
2022-09-17T20:06:02.551Z,11.50
2022-09-17T20:08:29.138Z,11.47
2022-09-17T20:10:55.651Z,11.41
2022-09-17T20:13:22.501Z,11.62
2022-09-17T20:15:49.004Z,11.59
2022-09-17T20:18:18.620Z,11.54
2022-09-17T20:20:47.049Z,11.51
2022-09-17T20:23:13.469Z,11.38
2022-09-17T20:25:40.011Z,11.27
2022-09-17T20:28:06.572Z,11.33
2022-09-17T20:30:32.982Z,11.28
2022-09-17T20:32:59.430Z,11.25
2022-09-17T20:35:25.832Z,11.20
2022-09-17T20:40:38.762Z,11.57
2022-09-17T20:43:05.344Z,11.24
2022-09-17T20:45:31.756Z,11.24
2022-09-17T20:47:58.170Z,11.33
2022-09-17T20:50:24.669Z,11.22
2022-09-17T20:52:51.193Z,11.20
2022-09-17T20:55:17.918Z,11.18
2022-09-17T20:57:44.689Z,11.08
2022-09-17T21:00:19.308Z,11.16
2022-09-17T21:02:50.576Z,11.32
2022-09-17T21:05:19.950Z,11.31
2022-09-17T21:07:46.363Z,11.19
2022-09-17T21:10:13.507Z,10.99
2022-09-17T21:12:40.026Z,10.93
2022-09-17T21:15:06.624Z,11.10
2022-09-17T21:17:33.932Z,10.88
2022-09-17T21:20:00.432Z,11.94
2022-09-17T21:22:26.917Z,11.07
2022-09-17T21:24:53.414Z,10.35
2022-09-17T21:27:19.851Z,10.12
2022-09-17T21:29:46.263Z,10.20
2022-09-17T21:32:12.667Z,10.27
2022-09-17T21:34:39.126Z,10.24
2022-09-17T21:37:06.432Z,10.28
2022-09-17T21:39:35.009Z,10.28
2022-09-17T21:42:01.650Z,10.36
2022-09-17T21:44:28.129Z,10.19
2022-09-17T21:46:57.553Z,10.14
2022-09-17T21:49:24.971Z,10.27
2022-09-17T21:51:51.518Z,10.31
2022-09-17T21:54:18.045Z,10.22
2022-09-17T21:56:45.092Z,10.18
2022-09-17T21:59:12.502Z,10.09
2022-09-17T22:01:40.878Z,10.03
2022-09-17T22:04:13.074Z,10.06
2022-09-17T22:06:40.425Z,10.25
2022-09-17T22:09:08.261Z,10.26
2022-09-17T22:11:36.207Z,10.34
2022-09-17T22:14:18.899Z,10.34
2022-09-17T22:16:46.851Z,10.35
2022-09-17T22:19:14.832Z,10.32
2022-09-17T22:21:47.206Z,10.22
2022-09-17T22:24:14.743Z,10.42
2022-09-17T22:26:43.510Z,10.39
2022-09-17T22:29:14.839Z,10.42
2022-09-17T22:31:41.354Z,10.37
2022-09-17T22:34:08.804Z,10.57
2022-09-17T22:36:35.249Z,10.50
2022-09-17T22:39:01.902Z,10.47
2022-09-17T22:41:29.486Z,10.46
2022-09-17T22:43:57.595Z,10.27
2022-09-17T22:46:28.804Z,10.42
2022-09-17T22:48:55.761Z,10.42
2022-09-17T22:51:22.835Z,10.52
2022-09-17T22:53:49.389Z,10.39
2022-09-17T22:56:17.211Z,10.45
2022-09-17T22:58:44.010Z,10.39
2022-09-17T23:01:12.348Z,10.49
2022-09-17T23:03:39.831Z,10.38
2022-09-17T23:06:07.915Z,10.10
2022-09-17T23:08:35.077Z,10.22
2022-09-17T23:11:01.916Z,10.18
2022-09-17T23:13:29.486Z,9.96
2022-09-17T23:16:06.344Z,9.91
2022-09-17T23:18:33.266Z,9.90
2022-09-17T23:21:01.138Z,9.70
2022-09-17T23:23:27.871Z,9.55
2022-09-17T23:25:54.930Z,9.69
2022-09-17T23:28:21.874Z,9.50
2022-09-17T23:30:48.358Z,9.46
2022-09-17T23:33:14.982Z,9.48
2022-09-17T23:35:41.387Z,9.46
2022-09-17T23:38:07.822Z,9.59
2022-09-17T23:40:34.521Z,9.69
2022-09-17T23:43:01.036Z,9.51
2022-09-17T23:45:27.483Z,9.41
2022-09-17T23:47:53.922Z,9.41
2022-09-17T23:50:20.391Z,9.61
2022-09-17T23:52:46.874Z,9.63
2022-09-17T23:55:13.317Z,9.66
2022-09-17T23:57:39.782Z,9.56
